Terminal Aerodrome Forecast
Issued by NWS Paducah, KY

Home | Current Version | Previous Version | Text Only | Print | Product List | Glossary On
Versions: 1 2 3 4 5 6 7 8 9 10 11 12 13 14 15 16 17 18 19 20 21 22 23 24
000
FTUS43 KPAH 252329
TAFPAH
TAF
KPAH 252329Z 2600/2624 22003KT P6SM BKN250
     FM260900 00000KT 4SM BR VCSH FEW040 BKN200
     FM261300 VRB03KT P6SM VCSH SCT040 BKN100
     FM261600 14004KT P6SM SCT040 BKN200=

USA.gov is the U.S. government's official web portal to all federal, state and local government web resources and services.